Time;durP1;ratioP1;P1;durP2;ratioP2;P2;SDS_P1;SDS_P2;PMS_P1;PMS_P2;Temp;Humidity;BMP_temperature;BMP_pressure;BME280_temperature;BME280_humidity;BME280_pressure;Samples;Min_cycle;Max_cycle;Signal;HPM_P1;HPM_P2
2021/12/09 00:02:56;;;;;;;53.03;30.83;;;0.30;36.30;;;;;;6264647;28;20245;-54
2021/12/09 00:05:59;;;;;;;54.23;31.17;;;0.10;37.80;;;;;;6276300;28;20685;-54
2021/12/09 00:09:06;;;;;;;57.03;31.43;;;0.30;37.30;;;;;;6290334;28;20232;-54
2021/12/09 00:12:10;;;;;;;53.30;29.40;;;0.00;38.50;;;;;;6288609;28;20284;-54
2021/12/09 00:15:13;;;;;;;54.40;28.93;;;0.00;38.70;;;;;;6288311;28;20349;-54
2021/12/09 00:18:17;;;;;;;55.33;30.50;;;0.10;38.10;;;;;;6269445;28;20323;-54
2021/12/09 00:21:19;;;;;;;54.40;30.47;;;0.20;37.70;;;;;;6266500;28;20303;-54
2021/12/09 00:24:24;;;;;;;51.03;29.63;;;0.30;37.40;;;;;;6265731;28;20726;-55
2021/12/09 00:27:26;;;;;;;57.93;31.20;;;0.00;38.50;;;;;;6266306;28;20349;-54
2021/12/09 00:30:30;;;;;;;55.00;31.87;;;0.00;39.90;;;;;;6263564;28;20324;-53
2021/12/09 00:33:40;;;;;;;57.70;31.57;;;0.20;38.60;;;;;;6264660;28;20238;-54
2021/12/09 00:36:55;;;;;;;57.80;31.53;;;0.10;38.60;;;;;;6264117;28;20526;-53
2021/12/09 00:39:59;;;;;;;54.97;31.67;;;0.20;39.50;;;;;;6273132;28;20701;-54
2021/12/09 00:43:02;;;;;;;59.87;31.23;;;0.10;38.60;;;;;;6290076;28;20402;-54
2021/12/09 00:46:06;;;;;;;55.87;32.30;;;0.10;39.50;;;;;;6268358;28;20230;-54
2021/12/09 00:49:09;;;;;;;60.97;31.57;;;0.10;39.10;;;;;;6267337;28;20226;-54
2021/12/09 00:52:13;;;;;;;61.93;33.70;;;0.30;39.00;;;;;;6263565;28;20377;-55
2021/12/09 00:55:17;;;;;;;59.30;32.67;;;0.00;38.60;;;;;;6263992;28;20335;-54
2021/12/09 00:58:20;;;;;;;63.07;34.37;;;0.00;37.10;;;;;;6264596;28;20237;-56
2021/12/09 01:01:24;;;;;;;57.37;32.60;;;0.10;39.00;;;;;;6269491;28;20778;-53
2021/12/09 01:04:27;;;;;;;63.33;33.27;;;0.20;39.10;;;;;;6269510;28;20611;-53
2021/12/09 01:07:29;;;;;;;70.23;35.00;;;0.20;38.40;;;;;;6275877;28;20252;-54
2021/12/09 01:10:34;;;;;;;60.37;31.47;;;0.00;37.70;;;;;;6274118;28;20371;-54
2021/12/09 01:13:37;;;;;;;57.17;31.63;;;0.30;37.60;;;;;;6279853;28;20243;-54
2021/12/09 01:16:40;;;;;;;63.93;33.93;;;-0.10;38.30;;;;;;6270765;28;20285;-54
2021/12/09 01:19:43;;;;;;;62.20;32.47;;;0.10;39.10;;;;;;6252324;28;20265;-53
2021/12/09 01:22:47;;;;;;;63.57;34.07;;;0.30;39.00;;;;;;6275278;28;20240;-55
2021/12/09 01:25:58;;;;;;;66.93;35.77;;;0.20;39.60;;;;;;6264550;28;20275;-53
2021/12/09 01:29:07;;;;;;;66.13;32.90;;;-0.20;37.90;;;;;;6264784;28;20757;-55
2021/12/09 01:32:12;;;;;;;66.90;35.53;;;0.20;38.00;;;;;;6264188;28;20339;-54
2021/12/09 01:35:17;;;;;;;68.80;35.30;;;0.20;36.80;;;;;;6284025;28;20335;-55
2021/12/09 01:38:22;;;;;;;66.87;35.33;;;-0.20;38.90;;;;;;6289567;28;20328;-54
2021/12/09 01:41:26;;;;;;;63.90;34.23;;;0.00;38.70;;;;;;6287334;28;20241;-55
2021/12/09 01:44:29;;;;;;;63.33;35.27;;;-0.10;38.90;;;;;;6279577;28;20700;-55
2021/12/09 01:47:32;;;;;;;63.33;34.40;;;0.00;38.60;;;;;;6258082;28;20452;-49
2021/12/09 01:50:36;;;;;;;61.27;32.80;;;0.00;38.30;;;;;;6269287;28;20364;-52
2021/12/09 01:53:39;;;;;;;67.20;36.00;;;0.10;40.40;;;;;;6269456;28;20308;-54
2021/12/09 01:56:43;;;;;;;63.97;35.37;;;0.00;40.00;;;;;;6273133;28;20269;-55
2021/12/09 01:59:48;;;;;;;69.47;34.77;;;0.00;38.50;;;;;;6276347;28;20750;-54
2021/12/09 02:02:51;;;;;;;67.13;34.77;;;-0.20;38.10;;;;;;6279337;28;20309;-53
2021/12/09 02:06:00;;;;;;;66.67;34.67;;;-0.20;38.50;;;;;;6285724;28;20239;-55
2021/12/09 02:09:04;;;;;;;63.87;34.77;;;0.10;38.90;;;;;;6285947;28;20253;-54
2021/12/09 02:12:08;;;;;;;62.20;34.23;;;-0.10;39.40;;;;;;6287607;28;20296;-55
2021/12/09 02:15:11;;;;;;;64.43;35.30;;;-0.10;38.90;;;;;;6283099;28;20746;-53
2021/12/09 02:18:15;;;;;;;59.30;34.20;;;0.20;38.90;;;;;;6263058;28;20724;-55
2021/12/09 02:21:20;;;;;;;70.00;35.17;;;0.00;37.80;;;;;;6261674;28;20465;-54
2021/12/09 02:24:23;;;;;;;62.47;34.13;;;-0.10;38.10;;;;;;6260880;28;20384;-54
2021/12/09 02:27:27;;;;;;;65.63;34.70;;;-0.20;37.80;;;;;;6261763;28;20501;-54
2021/12/09 02:30:30;;;;;;;68.63;34.03;;;-0.20;37.80;;;;;;6261218;28;20234;-55
2021/12/09 02:33:33;;;;;;;66.23;34.67;;;0.00;39.30;;;;;;6263498;28;20698;-55
2021/12/09 02:36:40;;;;;;;68.53;35.43;;;0.10;40.20;;;;;;6260834;28;20367;-54
2021/12/09 02:39:44;;;;;;;65.80;34.93;;;-0.30;40.70;;;;;;6269727;28;20820;-54
2021/12/09 02:42:47;;;;;;;59.77;34.80;;;0.10;40.90;;;;;;6287306;28;20233;-54
2021/12/09 02:45:52;;;;;;;60.10;34.50;;;0.10;39.70;;;;;;6266851;28;20261;-54
2021/12/09 02:48:55;;;;;;;64.87;35.13;;;0.10;39.90;;;;;;6264758;28;20268;-56
2021/12/09 02:52:02;;;;;;;66.70;35.13;;;-0.20;38.60;;;;;;6286299;28;20840;-55
2021/12/09 02:55:06;;;;;;;63.30;35.47;;;0.10;39.40;;;;;;6287814;28;20245;-53
2021/12/09 02:58:09;;;;;;;64.70;34.77;;;-0.10;38.60;;;;;;6290700;28;20734;-54
2021/12/09 03:01:17;;;;;;;64.77;34.87;;;0.10;39.40;;;;;;6288153;28;20256;-55
2021/12/09 03:04:20;;;;;;;65.40;35.57;;;0.10;40.30;;;;;;6286378;28;20338;-56
2021/12/09 03:07:28;;;;;;;67.03;34.50;;;-0.10;39.30;;;;;;6290910;28;20237;-56
2021/12/09 03:10:31;;;;;;;65.03;35.20;;;0.10;40.60;;;;;;6286383;28;20225;-54
2021/12/09 03:13:34;;;;;;;65.83;34.53;;;0.10;40.00;;;;;;6292102;28;20317;-53
2021/12/09 03:16:39;;;;;;;69.17;36.70;;;-0.20;40.50;;;;;;6279675;28;20732;-55
2021/12/09 03:19:42;;;;;;;66.93;36.03;;;0.00;40.00;;;;;;6266376;28;20230;-55
2021/12/09 03:22:49;;;;;;;71.23;37.37;;;-0.30;40.00;;;;;;6268949;28;20311;-54
2021/12/09 03:25:51;;;;;;;64.47;34.17;;;-0.30;40.30;;;;;;6270312;28;20321;-53
2021/12/09 03:28:54;;;;;;;66.13;35.90;;;0.00;40.90;;;;;;6275652;28;20307;-55
2021/12/09 03:32:00;;;;;;;65.73;34.70;;;0.00;40.90;;;;;;6277193;28;20772;-55
2021/12/09 03:35:04;;;;;;;67.50;35.63;;;0.00;39.60;;;;;;6265054;28;20762;-54
2021/12/09 03:38:08;;;;;;;68.13;35.77;;;0.10;40.80;;;;;;6273783;28;20237;-55
2021/12/09 03:41:11;;;;;;;67.47;35.47;;;-0.10;40.20;;;;;;6252806;28;20263;-54
2021/12/09 03:44:14;;;;;;;66.53;35.20;;;-0.20;39.80;;;;;;6276908;28;20278;-55
2021/12/09 03:47:20;;;;;;;65.13;35.33;;;0.00;40.50;;;;;;6261369;28;20237;-53
2021/12/09 03:50:23;;;;;;;66.93;35.53;;;-0.30;40.90;;;;;;6262044;28;20242;-54
2021/12/09 03:53:27;;;;;;;72.00;37.43;;;0.00;41.10;;;;;;6241778;28;20322;-54
2021/12/09 03:56:30;;;;;;;61.20;37.00;;;-0.10;41.00;;;;;;6240733;28;20673;-56
2021/12/09 03:59:32;;;;;;;68.17;37.23;;;0.00;41.40;;;;;;6257677;28;20560;-54
2021/12/09 04:02:36;;;;;;;65.30;35.43;;;-0.20;40.50;;;;;;6264194;28;20282;-50
2021/12/09 04:05:39;;;;;;;65.23;36.20;;;0.10;41.30;;;;;;6272388;28;20257;-54
2021/12/09 04:08:43;;;;;;;66.93;36.57;;;-0.20;40.00;;;;;;6262329;28;20386;-55
2021/12/09 04:11:46;;;;;;;68.23;36.17;;;0.00;41.40;;;;;;6240660;28;20226;-54
2021/12/09 04:14:49;;;;;;;63.17;35.40;;;-0.10;40.10;;;;;;6239137;28;20765;-53
2021/12/09 04:17:51;;;;;;;62.43;36.67;;;-0.20;39.70;;;;;;6253551;28;20757;-54
2021/12/09 04:20:54;;;;;;;64.90;36.50;;;-0.10;40.20;;;;;;6263743;28;20230;-53
2021/12/09 04:23:58;;;;;;;67.40;36.73;;;0.00;40.40;;;;;;6265054;28;20312;-54
2021/12/09 04:27:01;;;;;;;67.00;35.80;;;-0.30;40.70;;;;;;6265672;28;20260;-54
2021/12/09 04:30:05;;;;;;;60.87;34.13;;;-0.30;39.30;;;;;;6259779;28;20309;-54
2021/12/09 04:33:08;;;;;;;65.20;35.73;;;-0.20;40.10;;;;;;6236863;28;20235;-54
2021/12/09 04:36:11;;;;;;;65.07;35.43;;;-0.20;40.20;;;;;;6253921;28;20245;-53
2021/12/09 04:39:16;;;;;;;63.53;35.77;;;0.10;41.30;;;;;;6254340;28;20758;-53
2021/12/09 04:42:18;;;;;;;65.97;34.80;;;-0.20;40.20;;;;;;6262669;28;20321;-54
2021/12/09 04:45:22;;;;;;;67.00;36.50;;;0.20;40.90;;;;;;6263477;28;20380;-54
2021/12/09 04:48:24;;;;;;;68.07;35.13;;;-0.10;39.10;;;;;;6265214;28;20244;-55
2021/12/09 04:51:27;;;;;;;66.93;34.77;;;-0.20;38.70;;;;;;6257690;28;20292;-55
2021/12/09 04:54:31;;;;;;;63.17;35.97;;;-0.20;38.90;;;;;;6253794;28;20242;-55
2021/12/09 04:57:34;;;;;;;67.23;35.07;;;0.00;40.40;;;;;;6259015;28;20238;-54
2021/12/09 05:00:38;;;;;;;63.17;33.73;;;-0.20;39.50;;;;;;6250271;28;20462;-54
2021/12/09 05:03:45;;;;;;;66.23;33.60;;;-0.10;40.20;;;;;;6257153;28;20245;-54
2021/12/09 05:06:47;;;;;;;64.93;35.07;;;-0.10;40.50;;;;;;6256092;28;20737;-53
2021/12/09 05:09:52;;;;;;;68.20;35.57;;;0.00;40.70;;;;;;6262469;28;20245;-54
2021/12/09 05:12:55;;;;;;;65.93;33.97;;;-0.20;40.20;;;;;;6260165;28;20234;-57
2021/12/09 05:15:59;;;;;;;64.77;33.50;;;-0.10;41.00;;;;;;6252821;28;20307;-55
2021/12/09 05:19:02;;;;;;;63.33;33.37;;;0.10;41.80;;;;;;6258058;28;20237;-55
2021/12/09 05:22:08;;;;;;;59.43;33.07;;;-0.10;40.90;;;;;;6262480;28;20237;-54
2021/12/09 05:25:12;;;;;;;58.67;33.77;;;0.10;40.90;;;;;;6257866;28;20288;-55
2021/12/09 05:28:17;;;;;;;62.17;34.70;;;0.10;42.00;;;;;;6260707;28;20238;-53
2021/12/09 05:34:42;;;;;;;67.60;35.93;;;0.20;42.00;;;;;;6256875;28;20640;-54
2021/12/09 05:37:48;;;;;;;68.70;35.03;;;0.10;42.00;;;;;;6258626;28;20274;-54
2021/12/09 05:40:52;;;;;;;59.43;33.10;;;-0.10;41.40;;;;;;6255744;28;20285;-55
2021/12/09 05:43:55;;;;;;;66.63;34.77;;;-0.10;41.70;;;;;;6261717;28;20234;-53
2021/12/09 05:46:59;;;;;;;64.67;34.27;;;-0.10;41.00;;;;;;6259923;28;20242;-54
2021/12/09 05:50:02;;;;;;;66.07;33.97;;;0.00;43.30;;;;;;6261430;28;20324;-55
2021/12/09 05:53:05;;;;;;;58.10;34.30;;;0.00;44.30;;;;;;6261534;28;20372;-55
2021/12/09 05:56:10;;;;;;;67.97;35.40;;;0.10;43.20;;;;;;6261205;28;20503;-55
2021/12/09 05:59:12;;;;;;;60.77;33.40;;;0.20;43.60;;;;;;6260092;28;20283;-53
2021/12/09 06:02:17;;;;;;;66.53;34.80;;;0.10;44.00;;;;;;6260886;28;20234;-54
2021/12/09 06:05:21;;;;;;;70.67;34.00;;;-0.10;43.70;;;;;;6260236;28;20325;-54
2021/12/09 06:08:23;;;;;;;68.77;35.87;;;-0.10;43.90;;;;;;6256475;28;20813;-54
2021/12/09 06:11:27;;;;;;;66.27;34.17;;;-0.10;44.70;;;;;;6256571;28;20319;-54
2021/12/09 06:14:30;;;;;;;62.50;34.83;;;0.20;44.20;;;;;;6264834;28;20234;-54
2021/12/09 06:17:33;;;;;;;61.13;33.93;;;-0.20;43.50;;;;;;6259846;28;20233;-53
2021/12/09 06:20:36;;;;;;;69.10;34.40;;;0.10;43.90;;;;;;6259537;28;20464;-55
2021/12/09 06:23:38;;;;;;;61.53;33.53;;;-0.10;43.60;;;;;;6253530;28;20812;-54
2021/12/09 06:26:43;;;;;;;63.03;33.20;;;0.20;41.70;;;;;;6258729;28;20234;-53
2021/12/09 06:29:45;;;;;;;59.77;33.60;;;-0.10;42.30;;;;;;6262891;28;20384;-54
2021/12/09 06:32:48;;;;;;;68.30;35.17;;;-0.10;43.70;;;;;;6267548;28;20279;-54
2021/12/09 06:35:51;;;;;;;70.10;36.00;;;-0.10;43.10;;;;;;6263044;28;20237;-55
2021/12/09 06:38:54;;;;;;;65.87;36.40;;;-0.10;43.20;;;;;;6264742;28;20233;-55
2021/12/09 06:41:58;;;;;;;62.87;35.37;;;-0.10;43.90;;;;;;6259737;28;20236;-53
2021/12/09 06:45:01;;;;;;;63.27;35.20;;;0.20;44.40;;;;;;6266191;28;20368;-53
2021/12/09 06:48:04;;;;;;;62.87;34.00;;;-0.10;43.60;;;;;;6262080;28;20760;-54
2021/12/09 06:51:07;;;;;;;65.00;35.63;;;0.00;44.10;;;;;;6266302;28;20251;-54
2021/12/09 06:54:10;;;;;;;64.77;35.50;;;-0.20;45.20;;;;;;6255495;28;20244;-55
2021/12/09 06:57:14;;;;;;;70.07;34.97;;;0.10;45.50;;;;;;6264516;28;20246;-54
2021/12/09 07:00:19;;;;;;;70.43;36.17;;;0.10;46.30;;;;;;6256933;28;20233;-55
2021/12/09 07:03:23;;;;;;;73.50;38.60;;;-0.10;47.90;;;;;;6262958;28;20437;-53
2021/12/09 07:06:26;;;;;;;79.63;39.03;;;-0.10;48.80;;;;;;6265667;28;20245;-54
2021/12/09 07:09:30;;;;;;;70.77;37.17;;;-0.20;49.60;;;;;;6259344;28;20707;-54
2021/12/09 07:12:36;;;;;;;71.90;36.97;;;-0.10;49.70;;;;;;6264100;28;20734;-56
2021/12/09 07:15:39;;;;;;;69.67;37.13;;;-0.10;50.30;;;;;;6271457;28;21017;-55
2021/12/09 07:18:42;;;;;;;73.73;38.53;;;0.10;50.50;;;;;;6252304;28;20400;-55
2021/12/09 07:21:45;;;;;;;73.77;38.93;;;-0.20;50.20;;;;;;6267479;28;20287;-54
2021/12/09 07:24:53;;;;;;;76.90;37.60;;;-0.30;51.20;;;;;;6258448;28;20227;-57
2021/12/09 07:27:58;;;;;;;76.87;38.73;;;0.10;51.10;;;;;;6258619;28;20801;-55
2021/12/09 07:31:01;;;;;;;75.87;38.27;;;0.00;51.80;;;;;;6260214;28;20829;-55
2021/12/09 07:34:04;;;;;;;74.47;37.13;;;-0.10;51.10;;;;;;6250347;28;20372;-55
2021/12/09 07:37:06;;;;;;;71.47;36.07;;;-0.10;51.40;;;;;;6257588;28;20376;-55
2021/12/09 07:40:12;;;;;;;75.97;38.00;;;0.10;51.10;;;;;;6256801;28;20431;-56
2021/12/09 07:43:16;;;;;;;68.90;37.50;;;-0.10;51.40;;;;;;6262130;28;20356;-54
2021/12/09 07:46:19;;;;;;;69.53;36.97;;;-0.10;52.40;;;;;;6262865;28;20249;-55
2021/12/09 07:49:22;;;;;;;64.00;35.53;;;-0.10;51.50;;;;;;6252137;28;20250;-55
2021/12/09 07:52:25;;;;;;;72.57;35.80;;;0.10;51.60;;;;;;6262036;28;20320;-55
2021/12/09 07:55:30;;;;;;;75.43;39.20;;;0.00;52.70;;;;;;6259739;28;20246;-54
2021/12/09 07:58:35;;;;;;;71.00;38.17;;;0.00;53.20;;;;;;6259521;28;20350;-55
2021/12/09 08:01:38;;;;;;;61.27;34.47;;;0.00;52.00;;;;;;6259153;28;20245;-55
2021/12/09 08:04:41;;;;;;;77.50;39.00;;;-0.20;53.00;;;;;;6260342;28;20324;-54
2021/12/09 08:07:44;;;;;;;74.70;38.83;;;0.20;52.80;;;;;;6261744;28;20333;-54
2021/12/09 08:10:47;;;;;;;70.93;38.47;;;-0.10;52.10;;;;;;6261989;28;20260;-54
2021/12/09 08:13:51;;;;;;;73.90;39.23;;;-0.20;52.60;;;;;;6261982;28;20245;-54
2021/12/09 08:17:07;;;;;;;73.07;37.97;;;0.10;52.80;;;;;;6260139;28;20332;-55
2021/12/09 08:20:17;;;;;;;78.20;38.77;;;0.00;53.50;;;;;;6263434;28;20379;-56
2021/12/09 08:23:20;;;;;;;80.40;39.30;;;-0.20;52.90;;;;;;6267257;28;20226;-54
2021/12/09 08:26:23;;;;;;;72.47;39.20;;;-0.20;53.60;;;;;;6257350;28;20248;-56
2021/12/09 08:29:27;;;;;;;71.13;38.70;;;-0.10;53.40;;;;;;6263661;28;20361;-55
2021/12/09 08:32:30;;;;;;;69.83;37.17;;;0.20;54.30;;;;;;6259833;28;20230;-54
2021/12/09 08:35:33;;;;;;;76.57;38.87;;;0.00;54.10;;;;;;6256869;28;20253;-55
2021/12/09 08:38:36;;;;;;;73.47;38.90;;;0.00;54.50;;;;;;6254191;28;20726;-56
2021/12/09 08:41:40;;;;;;;78.87;39.40;;;-0.20;53.90;;;;;;6250550;28;20464;-54
2021/12/09 08:44:44;;;;;;;76.63;39.33;;;-0.10;54.00;;;;;;6260052;28;20385;-55
2021/12/09 08:47:49;;;;;;;81.83;40.83;;;-0.20;54.30;;;;;;6257580;28;20408;-54
2021/12/09 08:50:53;;;;;;;75.20;39.80;;;-0.10;54.30;;;;;;6260029;28;20233;-54
2021/12/09 08:53:58;;;;;;;73.23;40.23;;;-0.10;54.40;;;;;;6260778;28;20802;-56
2021/12/09 08:57:03;;;;;;;74.90;40.10;;;0.30;54.40;;;;;;6256862;28;20234;-55
2021/12/09 09:00:12;;;;;;;78.10;41.17;;;0.20;54.40;;;;;;6261046;28;20248;-58
2021/12/09 09:03:15;;;;;;;73.57;39.37;;;0.10;54.40;;;;;;6261194;28;20280;-56
2021/12/09 09:06:18;;;;;;;73.47;39.43;;;0.20;54.00;;;;;;6255393;28;20242;-55
2021/12/09 09:09:21;;;;;;;72.43;38.97;;;0.20;54.40;;;;;;6256449;28;20261;-56
2021/12/09 09:12:24;;;;;;;70.57;39.37;;;0.40;54.50;;;;;;6254209;28;20674;-56
2021/12/09 09:15:31;;;;;;;69.87;38.67;;;0.10;53.20;;;;;;6251807;28;20333;-54
2021/12/09 09:18:33;;;;;;;75.83;39.67;;;0.20;53.80;;;;;;6254649;28;20431;-55
2021/12/09 09:21:36;;;;;;;76.37;40.03;;;0.20;52.10;;;;;;6258419;28;20230;-56
2021/12/09 09:24:39;;;;;;;73.63;39.33;;;0.50;51.80;;;;;;6255663;28;20329;-54
2021/12/09 09:27:43;;;;;;;75.40;39.97;;;0.40;51.60;;;;;;6260281;28;20244;-54
2021/12/09 09:30:53;;;;;;;73.10;39.53;;;0.60;49.90;;;;;;6257431;28;20319;-54
2021/12/09 09:33:59;;;;;;;75.40;39.33;;;0.60;51.50;;;;;;6254943;28;20495;-53
2021/12/09 09:37:04;;;;;;;69.63;38.87;;;0.80;49.20;;;;;;6250141;28;20237;-55
2021/12/09 09:40:11;;;;;;;68.97;37.67;;;0.30;49.80;;;;;;6254039;28;20887;-54
2021/12/09 09:43:27;;;;;;;68.40;38.93;;;0.40;49.70;;;;;;6259618;28;20238;-56
2021/12/09 09:46:37;;;;;;;74.37;38.40;;;0.40;50.30;;;;;;6250345;28;20238;-56
2021/12/09 09:49:40;;;;;;;68.13;40.30;;;0.80;51.10;;;;;;6252161;28;20695;-54
2021/12/09 09:52:43;;;;;;;69.00;38.20;;;0.70;50.60;;;;;;6252776;28;20307;-56
2021/12/09 09:55:47;;;;;;;69.00;38.67;;;0.80;50.30;;;;;;6258155;28;20384;-57
2021/12/09 09:58:55;;;;;;;64.07;36.20;;;0.90;49.10;;;;;;6256917;28;20235;-55
2021/12/09 10:01:59;;;;;;;65.73;36.80;;;0.70;45.70;;;;;;6257265;28;20321;-56
2021/12/09 10:05:04;;;;;;;60.67;37.30;;;1.20;47.80;;;;;;6259966;28;20293;-54
2021/12/09 10:08:07;;;;;;;65.40;37.37;;;1.20;46.50;;;;;;6259895;28;20245;-54
2021/12/09 10:11:11;;;;;;;65.73;37.00;;;1.20;44.50;;;;;;6255195;28;20273;-54
2021/12/09 10:14:16;;;;;;;66.80;38.30;;;1.40;45.60;;;;;;6259898;28;20237;-54
2021/12/09 10:17:22;;;;;;;67.87;37.57;;;1.50;45.50;;;;;;6252648;28;20757;-55
2021/12/09 10:20:46;;;;;;;63.27;37.80;;;1.40;44.00;;;;;;6257739;28;20438;-53
2021/12/09 10:23:58;;;;;;;64.43;38.90;;;1.50;44.10;;;;;;6254602;28;20238;-54
2021/12/09 10:27:01;;;;;;;63.73;36.00;;;1.50;42.50;;;;;;6258216;28;20233;-54
2021/12/09 10:30:16;;;;;;;65.60;38.13;;;1.40;40.80;;;;;;6257312;28;20364;-54
2021/12/09 10:33:23;;;;;;;69.90;38.20;;;1.30;41.60;;;;;;6259674;28;20367;-55
2021/12/09 10:36:48;;;;;;;59.90;36.90;;;1.20;42.20;;;;;;6258739;28;20710;-55
2021/12/09 10:39:53;;;;;;;64.20;37.00;;;1.20;42.30;;;;;;6252431;28;20253;-58
2021/12/09 10:42:58;;;;;;;61.10;36.63;;;1.20;42.90;;;;;;6249407;28;20313;-54
2021/12/09 10:46:01;;;;;;;60.37;36.80;;;1.20;41.60;;;;;;6257443;28;20730;-56
2021/12/09 10:49:14;;;;;;;52.53;33.77;;;1.10;41.30;;;;;;6255644;28;20602;-55
2021/12/09 10:52:22;;;;;;;57.77;34.60;;;1.10;42.10;;;;;;6254707;28;20420;-55
2021/12/09 10:55:29;;;;;;;56.07;34.60;;;1.00;42.70;;;;;;6256847;28;20254;-55
2021/12/09 10:58:35;;;;;;;55.47;34.00;;;0.90;43.00;;;;;;6255208;28;20702;-55
2021/12/09 11:01:38;;;;;;;63.97;35.17;;;1.20;42.50;;;;;;6250481;28;20244;-55
2021/12/09 11:05:05;;;;;;;58.73;34.93;;;0.90;41.90;;;;;;6251570;28;20233;-55
2021/12/09 11:08:18;;;;;;;62.37;34.73;;;1.10;44.00;;;;;;6251614;28;20234;-54
2021/12/09 11:11:28;;;;;;;57.43;34.60;;;1.10;44.10;;;;;;6254367;28;20305;-54
2021/12/09 11:14:32;;;;;;;64.20;36.90;;;1.20;42.90;;;;;;6261062;28;20376;-55
2021/12/09 11:17:37;;;;;;;58.17;35.60;;;1.10;42.20;;;;;;6256840;28;20240;-55
2021/12/09 11:20:45;;;;;;;59.13;35.77;;;1.10;43.40;;;;;;6256944;28;20392;-55
2021/12/09 11:23:52;;;;;;;58.77;34.83;;;1.30;43.40;;;;;;6263096;28;20280;-56
2021/12/09 11:26:57;;;;;;;62.83;35.63;;;1.10;41.70;;;;;;6260990;28;20256;-56
2021/12/09 11:30:10;;;;;;;61.40;35.20;;;1.30;41.90;;;;;;6259576;28;20605;-56
2021/12/09 11:33:15;;;;;;;54.43;33.83;;;1.40;40.60;;;;;;6260672;28;20241;-58
2021/12/09 11:36:40;;;;;;;56.30;33.17;;;1.30;38.90;;;;;;6254123;28;20265;-55
2021/12/09 11:39:45;;;;;;;57.30;33.60;;;1.30;40.20;;;;;;6269027;28;20299;-55
2021/12/09 11:42:54;;;;;;;58.57;35.03;;;1.40;39.90;;;;;;6261320;28;20326;-55
2021/12/09 11:45:59;;;;;;;62.10;36.03;;;1.50;41.10;;;;;;6261323;28;20320;-55
2021/12/09 11:49:02;;;;;;;56.60;34.10;;;1.50;41.20;;;;;;6256193;28;20337;-55
2021/12/09 11:52:07;;;;;;;60.80;34.03;;;1.40;39.40;;;;;;6261107;28;20348;-56
2021/12/09 11:55:12;;;;;;;58.50;33.50;;;1.50;39.40;;;;;;6259877;28;20249;-55
2021/12/09 11:58:21;;;;;;;57.63;33.50;;;1.50;37.00;;;;;;6261493;28;20659;-55
2021/12/09 12:11:51;;;;;;;54.93;33.70;;;1.30;38.80;;;;;;6259702;28;20237;-55
2021/12/09 12:14:59;;;;;;;57.07;35.30;;;1.50;38.90;;;;;;6256801;28;20238;-55
2021/12/09 12:18:24;;;;;;;59.07;34.50;;;1.60;38.20;;;;;;6252002;28;20222;-54
2021/12/09 12:21:57;;;;;;;58.27;34.90;;;1.60;38.10;;;;;;6257617;28;20230;-54
2021/12/09 12:25:11;;;;;;;61.37;35.40;;;1.40;39.20;;;;;;6255967;28;20226;-55
2021/12/09 12:28:23;;;;;;;56.57;35.03;;;1.60;37.80;;;;;;6252045;28;20321;-56
2021/12/09 12:39:08;;;;;;;60.57;35.67;;;1.40;39.30;;;;;;6252242;28;20512;-54
2021/12/09 12:42:19;;;;;;;62.80;35.13;;;1.30;38.90;;;;;;6259093;28;20300;-54
2021/12/09 12:45:50;;;;;;;57.43;35.30;;;1.50;39.40;;;;;;6259258;28;20658;-54
2021/12/09 12:49:14;;;;;;;60.73;36.13;;;1.40;40.40;;;;;;6254903;28;20229;-54
2021/12/09 12:52:28;;;;;;;60.57;35.30;;;1.40;41.20;;;;;;6258533;28;20613;-56
2021/12/09 12:55:36;;;;;;;55.23;34.27;;;1.40;42.00;;;;;;6255505;28;20324;-54
2021/12/09 12:59:01;;;;;;;62.77;36.47;;;1.10;41.30;;;;;;6259605;28;20721;-54
2021/12/09 13:02:18;;;;;;;63.27;36.30;;;1.10;42.50;;;;;;6256843;28;20376;-54
2021/12/09 13:05:46;;;;;;;65.40;35.97;;;1.40;43.60;;;;;;6254350;28;20322;-55
2021/12/09 13:09:07;;;;;;;60.83;35.23;;;1.20;44.30;;;;;;6253530;28;20324;-56
2021/12/09 13:12:12;;;;;;;61.03;36.40;;;0.90;45.00;;;;;;6251107;28;20368;-54
2021/12/09 13:15:25;;;;;;;59.60;35.23;;;0.80;44.00;;;;;;6259131;28;20371;-55
2021/12/09 13:18:54;;;;;;;60.27;35.37;;;1.00;45.70;;;;;;6259300;28;20870;-54
2021/12/09 13:22:01;;;;;;;64.00;37.07;;;0.90;44.70;;;;;;6252602;28;20809;-56
2021/12/09 13:25:17;;;;;;;61.70;35.57;;;0.80;45.00;;;;;;6260224;28;20677;-54
2021/12/09 13:28:36;;;;;;;67.77;35.73;;;0.80;46.30;;;;;;6260791;28;20256;-54
2021/12/09 13:31:54;;;;;;;59.97;35.37;;;0.90;46.10;;;;;;6249700;28;20253;-55
2021/12/09 13:35:11;;;;;;;66.37;39.10;;;0.70;45.90;;;;;;6257226;28;20327;-55
2021/12/09 13:48:26;;;;;;;67.37;37.77;;;0.90;47.70;;;;;;6258777;28;20448;-55
2021/12/09 13:51:53;;;;;;;65.97;38.53;;;0.60;46.90;;;;;;6259134;28;20313;-56
2021/12/09 13:54:55;;;;;;;67.90;37.30;;;0.90;48.40;;;;;;6253214;28;20313;-54
2021/12/09 13:57:59;;;;;;;63.40;36.13;;;1.00;48.70;;;;;;6253101;28;20834;-54
2021/12/09 14:01:03;;;;;;;63.33;37.73;;;0.90;48.40;;;;;;6252284;28;20230;-54
2021/12/09 14:04:08;;;;;;;70.53;40.57;;;0.80;48.20;;;;;;6259730;28;20229;-53
2021/12/09 14:07:17;;;;;;;67.83;37.23;;;0.60;48.70;;;;;;6254391;28;20496;-54
2021/12/09 14:10:24;;;;;;;68.27;38.97;;;0.70;49.40;;;;;;6250357;28;20230;-56
2021/12/09 14:13:29;;;;;;;65.13;36.40;;;1.00;49.60;;;;;;6253651;28;20604;-55
2021/12/09 14:16:42;;;;;;;75.87;37.87;;;1.00;49.90;;;;;;6252249;28;20325;-56
2021/12/09 14:19:58;;;;;;;58.13;35.83;;;0.80;50.00;;;;;;6252680;28;20635;-54
2021/12/09 14:23:03;;;;;;;63.93;35.37;;;0.90;49.30;;;;;;6255466;28;20378;-55
2021/12/09 14:26:06;;;;;;;68.97;38.37;;;1.00;49.70;;;;;;6253471;28;20268;-56
2021/12/09 14:29:09;;;;;;;67.03;37.30;;;1.00;50.00;;;;;;6254427;28;20624;-56
2021/12/09 14:32:12;;;;;;;69.97;38.03;;;0.70;50.50;;;;;;6255156;28;20711;-56
2021/12/09 14:35:21;;;;;;;65.90;36.43;;;1.00;50.70;;;;;;6258427;28;20275;-55
2021/12/09 14:38:25;;;;;;;73.00;37.00;;;0.80;50.90;;;;;;6260643;28;20691;-57
2021/12/09 14:41:29;;;;;;;65.97;36.93;;;1.00;51.60;;;;;;6261633;28;20311;-55
2021/12/09 14:44:32;;;;;;;62.57;37.33;;;0.30;50.10;;;;;;6253341;28;20251;-55
2021/12/09 14:47:35;;;;;;;69.53;37.17;;;0.90;51.40;;;;;;6268328;28;20690;-56
2021/12/09 14:50:41;;;;;;;71.97;38.27;;;1.00;51.70;;;;;;6258708;28;20745;-55
2021/12/09 14:54:04;;;;;;;66.87;37.13;;;0.60;51.60;;;;;;6264352;28;20246;-55
2021/12/09 14:57:09;;;;;;;70.93;38.67;;;0.90;50.90;;;;;;6258376;28;20703;-49
2021/12/09 15:00:13;;;;;;;67.47;37.93;;;0.90;52.00;;;;;;6263542;28;20557;-54
2021/12/09 15:03:30;;;;;;;77.33;39.53;;;0.60;52.20;;;;;;6265041;28;20605;-56
2021/12/09 15:06:38;;;;;;;72.47;39.03;;;1.00;51.80;;;;;;6261383;28;20401;-55
2021/12/09 15:09:43;;;;;;;71.97;40.00;;;0.90;52.40;;;;;;6254232;28;20654;-55
2021/12/09 15:12:47;;;;;;;67.70;38.53;;;0.80;53.00;;;;;;6264096;28;20226;-56
2021/12/09 15:16:02;;;;;;;69.10;37.37;;;0.60;52.30;;;;;;6250513;28;20361;-55
2021/12/09 15:19:19;;;;;;;70.37;37.17;;;0.70;52.70;;;;;;6250726;28;20317;-55
2021/12/09 15:22:24;;;;;;;75.90;39.33;;;0.80;52.80;;;;;;6261221;28;20315;-55
2021/12/09 15:25:33;;;;;;;68.10;37.60;;;0.90;52.50;;;;;;6263219;28;20638;-54
2021/12/09 15:28:36;;;;;;;65.43;37.17;;;0.60;52.80;;;;;;6262340;28;20252;-56
2021/12/09 15:31:41;;;;;;;65.60;36.13;;;0.50;51.90;;;;;;6256916;28;20234;-54
2021/12/09 15:34:46;;;;;;;62.47;35.93;;;0.50;51.90;;;;;;6262404;28;20809;-56
2021/12/09 15:37:48;;;;;;;63.60;37.23;;;1.00;51.70;;;;;;6262988;28;20242;-56
2021/12/09 15:40:53;;;;;;;65.63;36.53;;;1.00;52.10;;;;;;6262343;28;20238;-56
2021/12/09 15:43:58;;;;;;;68.57;37.97;;;0.90;51.00;;;;;;6262689;28;20248;-54
2021/12/09 15:47:08;;;;;;;66.60;36.10;;;0.90;52.10;;;;;;6258430;28;20308;-56
2021/12/09 15:50:13;;;;;;;70.83;38.73;;;0.70;52.20;;;;;;6261489;28;20320;-56
2021/12/09 15:53:16;;;;;;;71.53;37.27;;;0.50;52.30;;;;;;6257790;28;20766;-55
2021/12/09 15:56:24;;;;;;;68.10;37.33;;;0.60;52.10;;;;;;6263181;28;20723;-54
2021/12/09 15:59:32;;;;;;;67.93;37.43;;;0.90;52.40;;;;;;6260757;28;20272;-55
2021/12/09 16:02:36;;;;;;;70.23;38.23;;;0.80;52.40;;;;;;6261557;28;20337;-54
2021/12/09 16:05:39;;;;;;;67.10;38.87;;;0.60;51.80;;;;;;6261007;28;20459;-55
2021/12/09 16:08:42;;;;;;;72.30;37.47;;;0.60;51.50;;;;;;6257917;28;20729;-54
2021/12/09 16:11:47;;;;;;;67.53;37.73;;;0.60;52.00;;;;;;6257191;28;20282;-54
2021/12/09 16:14:54;;;;;;;69.40;38.33;;;0.50;52.20;;;;;;6261430;28;20237;-55
2021/12/09 16:17:57;;;;;;;69.27;38.50;;;0.90;51.90;;;;;;6257770;28;20242;-55
2021/12/09 16:21:03;;;;;;;70.43;38.67;;;0.50;51.80;;;;;;6258289;28;20233;-54
2021/12/09 16:24:06;;;;;;;73.13;37.80;;;0.80;50.70;;;;;;6260817;28;20233;-55